createdAt,value
2022-08-22T00:00:13.317Z,18.19
2022-08-22T00:01:19.332Z,18.19
2022-08-22T00:02:22.680Z,18.19
2022-08-22T00:02:43.674Z,19.13
2022-08-22T00:04:25.972Z,18.19
2022-08-22T00:05:32.508Z,18.13
2022-08-22T00:06:35.384Z,18.13
2022-08-22T00:08:10.199Z,18.13
2022-08-22T00:09:13.165Z,18.13
2022-08-22T00:10:25.000Z,18.13
2022-08-22T00:11:59.926Z,18.13
2022-08-22T00:13:02.665Z,18.13
2022-08-22T00:14:05.452Z,18.13
2022-08-22T00:15:43.035Z,18.13
2022-08-22T00:16:46.499Z,18.13
2022-08-22T00:17:50.709Z,18.13
2022-08-22T00:19:29.069Z,18.13
2022-08-22T00:20:31.822Z,18.13
2022-08-22T00:21:34.721Z,18.06
2022-08-22T00:23:12.306Z,18.06
2022-08-22T00:24:14.889Z,18.06
2022-08-22T00:25:25.879Z,18.06
2022-08-22T00:27:00.909Z,18.00
2022-08-22T00:28:03.560Z,18.00
2022-08-22T00:29:06.276Z,18.00
2022-08-22T00:30:42.449Z,18.00
2022-08-22T00:31:45.375Z,18.00
2022-08-22T00:32:50.729Z,17.94
2022-08-22T00:34:26.381Z,17.94
2022-08-22T00:35:29.526Z,17.94
2022-08-22T00:36:36.850Z,17.94
2022-08-22T00:38:17.006Z,17.94
2022-08-22T00:39:19.606Z,17.88
2022-08-22T00:40:22.814Z,17.88
2022-08-22T00:41:57.379Z,17.94
2022-08-22T00:43:12.663Z,17.94
2022-08-22T00:44:15.477Z,17.94
2022-08-22T00:45:52.537Z,17.88
2022-08-22T00:46:55.197Z,17.88
2022-08-22T00:47:59.552Z,17.88
2022-08-22T00:49:40.786Z,17.88
2022-08-22T00:50:43.490Z,17.94
2022-08-22T00:51:46.178Z,17.94
2022-08-22T00:53:20.930Z,17.94
2022-08-22T00:54:23.853Z,17.94
2022-08-22T00:55:28.043Z,18.00
2022-08-22T00:57:09.555Z,17.94
2022-08-22T00:58:12.260Z,18.00
2022-08-22T00:59:23.937Z,17.94
2022-08-22T01:00:12.199Z,17.94
2022-08-22T01:01:17.254Z,17.94
2022-08-22T01:02:20.471Z,17.94
2022-08-22T01:03:59.544Z,17.94
2022-08-22T01:05:02.454Z,17.94
2022-08-22T01:06:05.308Z,17.94
2022-08-22T01:07:41.276Z,17.94
2022-08-22T01:08:44.306Z,17.94
2022-08-22T01:09:49.298Z,17.94
2022-08-22T01:11:23.879Z,17.94
2022-08-22T01:12:26.861Z,17.94
2022-08-22T01:13:29.565Z,17.94
2022-08-22T01:15:15.536Z,17.94
2022-08-22T01:16:18.446Z,17.94
2022-08-22T01:17:21.604Z,17.94
2022-08-22T01:18:56.309Z,17.94
2022-08-22T01:19:59.068Z,17.94
2022-08-22T01:21:01.979Z,17.94
2022-08-22T01:22:42.078Z,17.94
2022-08-22T01:23:44.905Z,17.94
2022-08-22T01:24:47.669Z,17.94
2022-08-22T01:26:35.251Z,17.94
2022-08-22T01:27:45.476Z,17.94
2022-08-22T01:28:50.909Z,17.94
2022-08-22T01:30:35.306Z,17.88
2022-08-22T01:31:39.622Z,17.94
2022-08-22T01:32:42.364Z,17.88
2022-08-22T01:34:20.690Z,17.88
2022-08-22T01:35:23.699Z,17.88
2022-08-22T01:36:26.421Z,17.88
2022-08-22T01:38:01.937Z,17.81
2022-08-22T01:39:04.807Z,17.81
2022-08-22T01:40:07.805Z,17.81
2022-08-22T01:42:00.676Z,17.75
2022-08-22T01:43:07.100Z,17.75
2022-08-22T01:44:46.341Z,17.75
2022-08-22T01:46:21.661Z,17.75
2022-08-22T01:47:24.760Z,17.69
2022-08-22T01:48:39.966Z,17.75
2022-08-22T01:50:16.716Z,17.75
2022-08-22T01:51:19.835Z,17.75
2022-08-22T01:52:22.731Z,17.75
2022-08-22T01:53:57.615Z,17.75
2022-08-22T01:55:00.256Z,17.75
2022-08-22T01:56:02.887Z,17.75
2022-08-22T01:57:37.643Z,17.75
2022-08-22T01:58:41.370Z,17.75
2022-08-22T01:59:52.529Z,17.75
2022-08-22T02:00:11.785Z,17.75
2022-08-22T02:01:27.627Z,17.75
2022-08-22T02:02:30.611Z,17.75
2022-08-22T02:04:05.556Z,17.75
2022-08-22T02:05:08.388Z,17.69
2022-08-22T02:06:14.544Z,17.69
2022-08-22T02:07:49.598Z,17.69
2022-08-22T02:08:52.325Z,17.69
2022-08-22T02:09:55.190Z,17.69
2022-08-22T02:11:31.068Z,17.63
2022-08-22T02:12:34.064Z,17.63
2022-08-22T02:13:37.011Z,17.63
2022-08-22T02:15:11.595Z,17.63
2022-08-22T02:16:14.359Z,17.63
2022-08-22T02:17:17.197Z,17.63
2022-08-22T02:18:52.025Z,17.56
2022-08-22T02:19:55.053Z,17.63
2022-08-22T02:21:00.941Z,17.56
2022-08-22T02:22:36.765Z,17.56
2022-08-22T02:23:47.402Z,17.50
2022-08-22T02:24:53.314Z,17.50
2022-08-22T02:26:32.749Z,17.50
2022-08-22T02:27:35.601Z,17.44
2022-08-22T02:28:38.659Z,17.44
2022-08-22T02:30:27.184Z,17.44
2022-08-22T02:31:30.102Z,17.44
2022-08-22T02:32:32.932Z,17.44
2022-08-22T02:34:09.216Z,17.44
2022-08-22T02:35:12.325Z,17.44
2022-08-22T02:36:15.216Z,17.44
2022-08-22T02:37:49.778Z,17.38
2022-08-22T02:38:52.658Z,17.38
2022-08-22T02:39:55.690Z,17.38
2022-08-22T02:41:33.403Z,17.38
2022-08-22T02:42:36.416Z,17.38
2022-08-22T02:43:41.064Z,17.38
2022-08-22T02:45:19.134Z,17.31
2022-08-22T02:46:22.114Z,17.31
2022-08-22T02:47:24.826Z,17.31
2022-08-22T02:49:02.599Z,17.31
2022-08-22T02:50:12.866Z,17.31
2022-08-22T02:51:17.262Z,17.31
2022-08-22T02:52:51.870Z,17.31
2022-08-22T02:53:56.853Z,17.31
2022-08-22T02:55:00.272Z,17.25
2022-08-22T02:56:35.687Z,17.25
2022-08-22T02:57:39.896Z,17.25
2022-08-22T02:58:44.923Z,17.25
2022-08-22T03:00:30.878Z,17.25
2022-08-22T03:01:36.341Z,17.25
2022-08-22T03:02:39.138Z,17.25
2022-08-22T03:04:13.785Z,17.25
2022-08-22T03:05:16.846Z,17.25
2022-08-22T03:06:19.817Z,17.19
2022-08-22T03:07:56.793Z,17.25
2022-08-22T03:09:10.425Z,17.25
2022-08-22T03:10:13.380Z,17.25
2022-08-22T03:11:48.107Z,17.25
2022-08-22T03:12:54.600Z,17.25
2022-08-22T03:14:00.629Z,17.31
2022-08-22T03:15:35.237Z,17.31
2022-08-22T03:16:46.421Z,17.31
2022-08-22T03:17:49.387Z,17.31
2022-08-22T03:19:24.556Z,17.31
2022-08-22T03:20:27.305Z,17.31
2022-08-22T03:21:30.473Z,17.31
2022-08-22T03:23:05.163Z,17.31
2022-08-22T03:24:08.087Z,17.31
2022-08-22T03:25:10.967Z,17.38
2022-08-22T03:26:48.514Z,17.38
2022-08-22T03:28:07.842Z,17.38
2022-08-22T03:29:10.868Z,17.38
2022-08-22T03:30:45.380Z,17.38
2022-08-22T03:31:48.407Z,17.38
2022-08-22T03:32:51.198Z,17.38
2022-08-22T03:34:25.762Z,17.38
2022-08-22T03:35:28.672Z,17.38
2022-08-22T03:36:31.825Z,17.38
2022-08-22T03:38:06.905Z,17.38
2022-08-22T03:39:16.634Z,17.38
2022-08-22T03:40:20.488Z,17.38
2022-08-22T03:42:01.089Z,17.38
2022-08-22T03:43:03.859Z,17.38
2022-08-22T03:44:06.595Z,17.38
2022-08-22T03:45:42.167Z,17.38
2022-08-22T03:46:45.043Z,17.38
2022-08-22T03:47:47.920Z,17.38
2022-08-22T03:49:23.638Z,17.38
2022-08-22T03:50:26.458Z,17.38
2022-08-22T03:51:29.620Z,17.38
2022-08-22T03:53:04.711Z,17.38
2022-08-22T03:54:16.177Z,17.38
2022-08-22T03:55:22.158Z,17.31
2022-08-22T03:57:00.297Z,17.31
2022-08-22T03:58:03.641Z,17.31
2022-08-22T03:59:24.973Z,17.31
2022-08-22T04:00:12.286Z,17.31
2022-08-22T04:01:15.560Z,17.31
2022-08-22T04:02:42.045Z,17.31
2022-08-22T04:04:18.894Z,17.25
2022-08-22T04:05:41.530Z,17.25
2022-08-22T04:06:56.280Z,17.25
2022-08-22T04:08:26.176Z,17.25
2022-08-22T04:10:11.814Z,17.19
2022-08-22T04:11:14.810Z,17.19
2022-08-22T04:12:17.820Z,17.19
2022-08-22T04:13:53.260Z,17.25
2022-08-22T04:14:56.398Z,17.19
2022-08-22T04:15:59.193Z,17.25
2022-08-22T04:17:34.551Z,17.19
2022-08-22T04:18:38.601Z,17.19
2022-08-22T04:19:43.677Z,17.25
2022-08-22T04:21:23.200Z,17.25
2022-08-22T04:22:26.058Z,17.19
2022-08-22T04:23:29.161Z,17.19
2022-08-22T04:25:07.974Z,17.19
2022-08-22T04:26:12.269Z,17.19
2022-08-22T04:27:15.905Z,17.19
2022-08-22T04:28:51.736Z,17.19
2022-08-22T04:29:54.632Z,17.19
2022-08-22T04:30:57.501Z,17.19
2022-08-22T04:32:32.415Z,17.13
2022-08-22T04:33:35.502Z,17.13
2022-08-22T04:34:38.394Z,17.13
2022-08-22T04:36:13.453Z,17.13
2022-08-22T04:37:16.854Z,17.13
2022-08-22T04:38:19.855Z,17.06
2022-08-22T04:39:54.971Z,17.06
2022-08-22T04:41:01.394Z,17.06
2022-08-22T04:42:31.342Z,17.06
2022-08-22T04:44:10.470Z,17.06
2022-08-22T04:45:16.217Z,17.06
2022-08-22T04:46:19.131Z,17.00
2022-08-22T04:48:05.934Z,17.00
2022-08-22T04:49:08.908Z,16.94
2022-08-22T04:50:11.999Z,16.88
2022-08-22T04:51:52.192Z,16.88
2022-08-22T04:52:55.293Z,16.88
2022-08-22T04:53:58.273Z,16.88
2022-08-22T04:55:32.890Z,16.88
2022-08-22T04:56:42.246Z,16.88
2022-08-22T04:57:45.431Z,16.88
2022-08-22T04:59:24.341Z,16.81
2022-08-22T05:00:11.979Z,16.81
2022-08-22T05:01:15.457Z,16.81
2022-08-22T05:02:18.998Z,16.81
2022-08-22T05:03:57.038Z,16.81
2022-08-22T05:05:01.084Z,16.75
2022-08-22T05:06:11.041Z,16.75
2022-08-22T05:07:46.135Z,16.69
2022-08-22T05:08:53.975Z,16.69
2022-08-22T05:10:11.717Z,16.69
2022-08-22T05:11:47.016Z,16.69
2022-08-22T05:12:49.837Z,16.75
2022-08-22T05:13:52.910Z,16.69
2022-08-22T05:15:29.419Z,16.75
2022-08-22T05:16:34.390Z,16.75
2022-08-22T05:17:37.465Z,16.75
2022-08-22T05:19:17.015Z,16.81
2022-08-22T05:20:31.728Z,16.81
2022-08-22T05:21:35.653Z,16.81
2022-08-22T05:23:17.175Z,16.88
2022-08-22T05:24:20.929Z,16.88
2022-08-22T05:25:25.544Z,16.88
2022-08-22T05:27:01.193Z,16.88
2022-08-22T05:28:03.982Z,16.94
2022-08-22T05:29:06.928Z,16.94
2022-08-22T05:30:41.830Z,16.94
2022-08-22T05:31:44.691Z,16.94
2022-08-22T05:32:47.598Z,16.94
2022-08-22T05:34:22.492Z,16.88
2022-08-22T05:35:26.423Z,16.88
2022-08-22T05:36:38.898Z,16.81
2022-08-22T05:38:15.016Z,16.75
2022-08-22T05:39:17.988Z,16.75
2022-08-22T05:40:23.470Z,16.75
2022-08-22T05:42:01.506Z,16.75
2022-08-22T05:43:04.389Z,16.81
2022-08-22T05:44:07.367Z,16.81
2022-08-22T05:45:47.373Z,16.81
2022-08-22T05:46:50.339Z,16.88
2022-08-22T05:47:53.353Z,16.88
2022-08-22T05:49:29.601Z,16.88
2022-08-22T05:50:32.482Z,16.88
2022-08-22T05:51:39.091Z,16.88
2022-08-22T05:53:15.539Z,16.88
2022-08-22T05:54:18.633Z,16.88
2022-08-22T05:55:31.738Z,16.88
2022-08-22T05:57:08.046Z,16.94
2022-08-22T05:58:11.201Z,16.88
2022-08-22T05:59:14.211Z,16.94
2022-08-22T06:00:12.733Z,16.94
2022-08-22T06:01:19.028Z,16.94
2022-08-22T06:02:22.395Z,16.94
2022-08-22T06:03:57.098Z,17.00
2022-08-22T06:04:59.966Z,17.00
2022-08-22T06:06:09.127Z,17.00
2022-08-22T06:07:43.937Z,17.06
2022-08-22T06:08:47.444Z,17.06
2022-08-22T06:09:50.281Z,17.00
2022-08-22T06:11:32.758Z,17.06
2022-08-22T06:12:57.557Z,17.06
2022-08-22T06:14:10.733Z,17.06
2022-08-22T06:16:03.791Z,17.06
2022-08-22T06:17:07.113Z,17.06
2022-08-22T06:18:10.139Z,17.06
2022-08-22T06:19:59.992Z,17.06
2022-08-22T06:21:03.669Z,17.06
2022-08-22T06:22:18.705Z,17.06
2022-08-22T06:23:54.958Z,17.06
2022-08-22T06:24:57.843Z,17.06
2022-08-22T06:26:00.713Z,17.06
2022-08-22T06:27:55.329Z,17.06
2022-08-22T06:28:58.144Z,17.06
2022-08-22T06:30:00.949Z,17.13
2022-08-22T06:31:35.777Z,17.13
2022-08-22T06:32:59.543Z,17.13
2022-08-22T06:34:04.481Z,17.06
2022-08-22T06:35:40.892Z,17.13
2022-08-22T06:36:43.591Z,17.13
2022-08-22T06:37:46.571Z,17.13
2022-08-22T06:39:21.648Z,17.13
2022-08-22T06:40:25.081Z,17.13
2022-08-22T06:41:29.253Z,17.13
2022-08-22T06:43:04.456Z,17.19
2022-08-22T06:44:07.346Z,17.25
2022-08-22T06:45:11.125Z,17.25
2022-08-22T06:46:45.924Z,17.31
2022-08-22T06:47:50.164Z,17.31
2022-08-22T06:49:04.751Z,17.38
2022-08-22T06:50:39.414Z,17.44
2022-08-22T06:51:42.307Z,17.44
2022-08-22T06:52:45.194Z,17.50
2022-08-22T06:54:33.799Z,17.50
2022-08-22T06:55:39.062Z,17.50
2022-08-22T06:56:43.559Z,17.50
2022-08-22T06:58:18.348Z,17.56
2022-08-22T06:59:26.020Z,17.56
2022-08-22T07:00:12.154Z,17.63
2022-08-22T07:01:15.052Z,17.63
2022-08-22T07:02:18.759Z,17.69
2022-08-22T07:03:53.638Z,17.69
2022-08-22T07:04:56.527Z,17.75
2022-08-22T07:05:59.496Z,17.75
2022-08-22T07:07:34.488Z,17.81
2022-08-22T07:08:39.151Z,17.81
2022-08-22T07:09:47.575Z,17.81
2022-08-22T07:11:22.708Z,17.88
2022-08-22T07:12:28.717Z,17.94
2022-08-22T07:13:31.876Z,17.94
2022-08-22T07:15:06.853Z,18.00
2022-08-22T07:16:09.723Z,18.00
2022-08-22T07:17:12.589Z,18.06
2022-08-22T07:18:52.779Z,18.06
2022-08-22T07:19:55.865Z,18.06
2022-08-22T07:20:58.715Z,18.13
2022-08-22T07:22:36.798Z,18.19
2022-08-22T07:23:40.527Z,18.25
2022-08-22T07:24:43.872Z,18.31
2022-08-22T07:26:18.870Z,18.31
2022-08-22T07:27:21.904Z,18.38
2022-08-22T07:28:37.124Z,18.44
2022-08-22T07:30:36.061Z,18.56
2022-08-22T07:31:41.746Z,18.63
2022-08-22T07:32:46.391Z,18.69
2022-08-22T07:34:50.594Z,18.94
2022-08-22T07:35:53.878Z,19.00
2022-08-22T07:36:58.134Z,19.13
2022-08-22T07:38:33.037Z,19.19
2022-08-22T07:39:36.129Z,19.25
2022-08-22T07:40:40.718Z,19.25
2022-08-22T07:42:16.950Z,19.31
2022-08-22T07:43:22.532Z,19.31
2022-08-22T07:44:25.354Z,19.38
2022-08-22T07:46:00.533Z,19.31
2022-08-22T07:47:03.451Z,19.25
2022-08-22T07:48:17.204Z,19.25
2022-08-22T07:50:35.937Z,19.25
2022-08-22T07:51:38.976Z,19.25
2022-08-22T07:52:41.678Z,19.25
2022-08-22T07:54:16.327Z,19.25
2022-08-22T07:55:24.590Z,19.31
2022-08-22T07:56:41.122Z,19.31
2022-08-22T07:58:15.681Z,19.38
2022-08-22T07:59:18.674Z,19.38
2022-08-22T08:00:11.999Z,19.38
2022-08-22T08:01:14.958Z,19.38
2022-08-22T08:02:18.392Z,19.38
2022-08-22T08:03:53.108Z,19.44
2022-08-22T08:04:55.824Z,19.38
2022-08-22T08:05:58.764Z,19.38
2022-08-22T08:07:33.611Z,19.38
2022-08-22T08:08:36.541Z,19.38
2022-08-22T08:09:39.451Z,19.44
2022-08-22T08:11:19.700Z,19.63
2022-08-22T08:12:23.170Z,19.69
2022-08-22T08:13:42.634Z,19.81
2022-08-22T08:15:20.557Z,19.94
2022-08-22T08:16:23.532Z,19.94
2022-08-22T08:17:31.392Z,20.00
2022-08-22T08:19:07.245Z,20.13
2022-08-22T08:20:10.338Z,20.19
2022-08-22T08:21:13.174Z,20.25
2022-08-22T08:22:47.871Z,20.38
2022-08-22T08:23:58.262Z,20.44
2022-08-22T08:25:06.466Z,20.44
2022-08-22T08:26:41.496Z,20.44
2022-08-22T08:27:44.404Z,20.50
2022-08-22T08:28:58.695Z,20.50
2022-08-22T08:30:34.833Z,20.69
2022-08-22T08:31:37.741Z,20.75
2022-08-22T08:32:46.203Z,20.81
2022-08-22T08:34:50.033Z,20.81
2022-08-22T08:36:02.722Z,20.75
2022-08-22T08:37:06.401Z,20.75
2022-08-22T08:38:42.156Z,20.75
2022-08-22T08:39:45.326Z,20.81
2022-08-22T08:40:48.923Z,20.88
2022-08-22T08:42:29.309Z,21.00
2022-08-22T08:43:32.314Z,21.13
2022-08-22T08:44:35.130Z,21.19
2022-08-22T08:46:10.196Z,21.19
2022-08-22T08:47:15.097Z,21.25
2022-08-22T08:48:22.697Z,21.31
2022-08-22T08:49:59.226Z,21.38
2022-08-22T08:51:04.251Z,21.38
2022-08-22T08:52:10.007Z,21.44
2022-08-22T08:53:48.326Z,21.50
2022-08-22T08:54:54.181Z,21.56
2022-08-22T08:56:19.641Z,21.56
2022-08-22T09:00:12.544Z,21.81
2022-08-22T09:01:27.674Z,21.88
2022-08-22T09:02:36.743Z,21.88
2022-08-22T09:04:26.507Z,21.94
2022-08-22T09:05:31.595Z,22.06
2022-08-22T09:06:35.870Z,22.13
2022-08-22T09:08:23.377Z,22.19
2022-08-22T09:09:30.783Z,22.19
2022-08-22T09:10:41.421Z,22.19
2022-08-22T09:12:24.158Z,22.19
2022-08-22T09:13:58.307Z,22.25
2022-08-22T09:15:11.735Z,22.31
2022-08-22T09:17:19.984Z,22.44
2022-08-22T09:18:26.971Z,22.44
2022-08-22T09:19:31.736Z,22.44
2022-08-22T09:21:30.675Z,22.50
2022-08-22T09:22:50.672Z,22.69
2022-08-22T09:23:57.147Z,22.75
2022-08-22T09:25:41.090Z,23.00
2022-08-22T09:26:45.501Z,23.13
2022-08-22T09:27:59.620Z,23.25
2022-08-22T09:41:46.436Z,23.63
2022-08-22T09:42:55.363Z,23.69
2022-08-22T09:44:03.341Z,23.63
2022-08-22T09:45:47.101Z,23.56
2022-08-22T09:46:56.296Z,23.50
2022-08-22T09:48:07.993Z,23.44
2022-08-22T09:49:54.300Z,23.44
2022-08-22T09:51:31.261Z,23.50
2022-08-22T09:52:50.598Z,23.56
2022-08-22T09:54:31.708Z,23.63
2022-08-22T09:55:43.131Z,23.69
2022-08-22T09:57:06.620Z,23.75
2022-08-22T09:58:52.141Z,23.81
2022-08-22T09:59:58.080Z,23.94
2022-08-22T10:00:12.273Z,23.94
2022-08-22T10:01:21.202Z,24.06
2022-08-22T10:02:33.758Z,24.13
2022-08-22T10:04:28.308Z,24.13
2022-08-22T10:05:40.748Z,24.13
2022-08-22T10:06:51.029Z,24.25
2022-08-22T10:08:40.183Z,24.19
2022-08-22T10:09:44.163Z,24.06
2022-08-22T10:10:56.463Z,24.00
2022-08-22T10:12:36.162Z,23.81
2022-08-22T10:13:45.508Z,23.75
2022-08-22T10:15:03.187Z,23.81
2022-08-22T10:16:45.280Z,23.94
2022-08-22T10:17:56.984Z,24.00
2022-08-22T10:19:02.721Z,23.94
2022-08-22T10:20:45.120Z,23.88
2022-08-22T10:21:55.689Z,24.00
2022-08-22T10:23:05.798Z,24.06
2022-08-22T10:25:00.537Z,24.19
2022-08-22T10:26:05.287Z,24.25
2022-08-22T10:27:25.231Z,24.44
2022-08-22T10:29:09.159Z,24.63
2022-08-22T10:30:13.271Z,24.63
2022-08-22T10:31:16.706Z,24.69
2022-08-22T10:33:23.856Z,24.81
2022-08-22T10:34:30.541Z,24.88
2022-08-22T10:35:36.086Z,24.81
2022-08-22T10:37:23.922Z,24.81
2022-08-22T10:38:36.088Z,24.88
2022-08-22T10:40:07.548Z,25.00
2022-08-22T10:41:50.345Z,25.13
2022-08-22T10:43:02.897Z,25.19
2022-08-22T10:44:15.812Z,25.25
2022-08-22T10:46:12.520Z,25.31
2022-08-22T10:47:19.079Z,25.25
2022-08-22T10:48:23.280Z,25.25
2022-08-22T10:50:10.879Z,25.38
2022-08-22T10:51:23.719Z,25.38
2022-08-22T10:52:28.644Z,25.44
2022-08-22T10:54:19.761Z,25.69
2022-08-22T10:55:26.265Z,25.88
2022-08-22T10:56:33.615Z,25.81
2022-08-22T10:58:13.906Z,25.75
2022-08-22T10:59:23.974Z,25.81
2022-08-22T11:00:12.169Z,25.81
2022-08-22T11:01:37.478Z,25.81
2022-08-22T11:02:45.110Z,25.75
2022-08-22T11:04:47.301Z,25.69
2022-08-22T11:05:51.166Z,25.56
2022-08-22T11:06:56.989Z,25.56
2022-08-22T11:08:35.636Z,25.50
2022-08-22T11:09:43.123Z,25.50
2022-08-22T11:10:49.588Z,25.50
2022-08-22T11:12:34.497Z,25.50
2022-08-22T11:13:39.550Z,25.50
2022-08-22T11:14:48.799Z,25.69
2022-08-22T11:16:55.051Z,25.88
2022-08-22T11:18:35.347Z,26.00
2022-08-22T11:20:02.141Z,26.00
2022-08-22T11:21:42.179Z,25.94
2022-08-22T11:22:50.571Z,25.94
2022-08-22T11:24:06.468Z,25.81
2022-08-22T11:26:46.648Z,25.69
2022-08-22T11:28:14.217Z,25.75
2022-08-22T11:29:21.666Z,25.75
2022-08-22T11:31:18.923Z,25.75
2022-08-22T11:32:46.775Z,25.50
2022-08-22T11:34:21.762Z,25.44
2022-08-22T11:35:58.535Z,25.38
2022-08-22T11:37:13.503Z,25.38
2022-08-22T11:38:46.096Z,25.44
2022-08-22T11:40:34.471Z,25.63
2022-08-22T11:41:40.581Z,25.75
2022-08-22T11:42:56.956Z,25.81
2022-08-22T11:44:50.931Z,25.94
2022-08-22T11:45:57.393Z,25.94
2022-08-22T11:47:06.224Z,26.06
2022-08-22T11:48:49.997Z,26.13
2022-08-22T11:49:53.965Z,26.19
2022-08-22T11:51:13.232Z,26.19
2022-08-22T11:53:04.003Z,26.25
2022-08-22T11:54:14.298Z,26.31
2022-08-22T11:55:32.631Z,26.38
2022-08-22T11:57:16.389Z,26.25
2022-08-22T11:58:28.837Z,26.19
2022-08-22T11:59:40.163Z,26.13
2022-08-22T12:00:12.591Z,26.13
2022-08-22T12:01:22.408Z,26.13
2022-08-22T12:02:33.763Z,26.13
2022-08-22T12:04:14.252Z,26.13
2022-08-22T12:05:24.727Z,26.13
2022-08-22T12:06:30.595Z,26.19
2022-08-22T12:08:14.789Z,26.19
2022-08-22T12:09:26.442Z,26.25
2022-08-22T12:10:36.008Z,26.25
2022-08-22T12:12:14.703Z,26.31
2022-08-22T12:13:34.120Z,26.31
2022-08-22T12:14:50.427Z,26.38
2022-08-22T12:16:41.744Z,26.38
2022-08-22T12:18:29.838Z,26.25
2022-08-22T12:19:49.005Z,26.31
2022-08-22T12:21:56.839Z,26.31
2022-08-22T12:23:04.066Z,26.38
2022-08-22T12:24:31.007Z,26.44
2022-08-22T12:26:11.240Z,26.44
2022-08-22T12:27:18.210Z,26.50
2022-08-22T12:28:36.063Z,26.50
2022-08-22T12:30:31.382Z,26.50
2022-08-22T12:31:41.210Z,26.56
2022-08-22T12:32:53.765Z,26.56
2022-08-22T12:34:38.361Z,26.56
2022-08-22T12:36:05.007Z,26.56
2022-08-22T12:37:16.793Z,26.56
2022-08-22T12:39:36.631Z,26.50
2022-08-22T12:40:46.156Z,26.50
2022-08-22T12:42:10.349Z,26.44
2022-08-22T12:43:53.675Z,26.50
2022-08-22T12:45:03.531Z,26.44
2022-08-22T12:46:12.965Z,26.50
2022-08-22T12:48:07.105Z,26.44
2022-08-22T12:49:12.251Z,26.44
2022-08-22T12:50:19.912Z,26.44
2022-08-22T12:52:05.550Z,26.44
2022-08-22T12:53:08.999Z,26.44
2022-08-22T12:54:20.669Z,26.63
2022-08-22T12:55:59.746Z,26.69
2022-08-22T12:57:04.094Z,26.81
2022-08-22T12:58:33.179Z,26.88
2022-08-22T13:00:12.385Z,26.88
2022-08-22T13:01:23.303Z,26.94
2022-08-22T13:02:43.134Z,26.94
2022-08-22T13:04:33.135Z,26.88
2022-08-22T13:05:40.936Z,26.88
2022-08-22T13:07:01.473Z,26.94
2022-08-22T13:08:46.625Z,26.88
2022-08-22T13:10:03.797Z,26.75
2022-08-22T13:11:22.670Z,26.75
2022-08-22T13:13:12.033Z,26.75
2022-08-22T13:14:52.942Z,26.75
2022-08-22T13:16:00.268Z,26.69
2022-08-22T13:18:13.517Z,26.75
2022-08-22T13:19:42.252Z,26.88
2022-08-22T13:20:48.518Z,26.88
2022-08-22T13:22:29.091Z,26.94
2022-08-22T13:23:47.563Z,27.00
2022-08-22T13:25:14.327Z,27.06
2022-08-22T13:27:20.375Z,27.06
2022-08-22T13:28:40.361Z,27.13
2022-08-22T13:30:32.026Z,27.00
2022-08-22T13:32:09.165Z,26.88
2022-08-22T13:33:19.617Z,26.88
2022-08-22T13:34:23.941Z,26.88
2022-08-22T13:36:16.368Z,26.81
2022-08-22T13:37:35.265Z,26.75
2022-08-22T13:38:47.259Z,26.75
2022-08-22T13:40:29.713Z,26.81
2022-08-22T13:41:35.317Z,26.94
2022-08-22T13:42:49.474Z,27.06
2022-08-22T13:44:30.689Z,27.13
2022-08-22T13:45:37.321Z,27.13
2022-08-22T13:47:13.259Z,27.19
2022-08-22T13:49:03.519Z,27.31
2022-08-22T13:50:14.613Z,27.25
2022-08-22T13:51:42.942Z,27.25
2022-08-22T13:53:57.260Z,27.31
2022-08-22T13:55:20.730Z,27.38
2022-08-22T13:56:31.402Z,27.31
2022-08-22T13:58:19.019Z,27.19
2022-08-22T13:59:47.009Z,27.13
2022-08-22T14:00:12.091Z,27.13
2022-08-22T14:01:53.046Z,27.13
2022-08-22T14:03:11.793Z,27.13
2022-08-22T14:05:15.531Z,27.25
2022-08-22T14:06:36.835Z,27.13
2022-08-22T14:07:42.018Z,27.00
2022-08-22T14:09:32.943Z,26.94
2022-08-22T14:10:50.553Z,26.94
2022-08-22T14:12:03.120Z,26.94
2022-08-22T14:14:04.744Z,26.94
2022-08-22T14:15:12.640Z,26.94
2022-08-22T14:16:27.760Z,26.94
2022-08-22T14:18:03.992Z,27.00
2022-08-22T14:19:27.220Z,27.00
2022-08-22T14:21:16.567Z,26.88
2022-08-22T14:23:12.707Z,26.81
2022-08-22T14:24:25.472Z,26.81
2022-08-22T14:25:42.425Z,26.75
2022-08-22T14:27:41.437Z,26.63
2022-08-22T14:28:52.708Z,26.56
2022-08-22T14:29:56.470Z,26.50
2022-08-22T14:31:41.543Z,26.50
2022-08-22T14:32:52.726Z,26.50
2022-08-22T14:33:57.133Z,26.25
2022-08-22T14:35:39.379Z,26.13
2022-08-22T14:36:57.988Z,26.00
2022-08-22T14:38:04.392Z,26.00
2022-08-22T14:40:09.825Z,26.00
2022-08-22T14:41:13.183Z,26.06
2022-08-22T14:42:53.266Z,26.06
2022-08-22T14:44:37.722Z,26.06
2022-08-22T14:45:47.360Z,26.13
2022-08-22T14:46:55.269Z,26.13
2022-08-22T14:50:00.219Z,26.19
2022-08-22T14:51:11.429Z,26.25
2022-08-22T14:52:19.874Z,26.25
2022-08-22T14:54:00.464Z,26.31
2022-08-22T14:55:17.604Z,26.31
2022-08-22T14:56:28.274Z,26.38
2022-08-22T14:58:07.806Z,26.38
2022-08-22T14:59:20.276Z,26.44
2022-08-22T15:00:12.522Z,26.44
2022-08-22T15:01:25.054Z,26.44
2022-08-22T15:02:33.978Z,26.44
2022-08-22T15:04:16.545Z,26.38
2022-08-22T15:05:27.713Z,26.38
2022-08-22T15:06:48.183Z,26.38
2022-08-22T15:08:27.494Z,26.38
2022-08-22T15:09:43.075Z,26.38
2022-08-22T15:10:56.387Z,26.31
2022-08-22T15:12:36.702Z,26.38
2022-08-22T15:13:42.696Z,26.31
2022-08-22T15:14:52.224Z,26.31
2022-08-22T15:16:50.719Z,26.31
2022-08-22T15:17:58.658Z,26.31
2022-08-22T15:19:06.719Z,26.31
2022-08-22T15:20:52.367Z,26.38
2022-08-22T15:22:05.208Z,26.38
2022-08-22T15:23:13.715Z,26.31
2022-08-22T15:25:03.830Z,26.31
2022-08-22T15:26:15.945Z,26.31
2022-08-22T15:27:24.864Z,26.31
2022-08-22T15:29:28.984Z,26.31
2022-08-22T15:30:32.812Z,26.19
2022-08-22T15:31:49.897Z,26.19
2022-08-22T15:33:29.796Z,26.19
2022-08-22T15:34:37.024Z,26.19
2022-08-22T15:35:46.265Z,26.19
2022-08-22T15:37:23.135Z,26.13
2022-08-22T15:38:29.750Z,26.13
2022-08-22T15:39:41.084Z,26.06
2022-08-22T15:41:31.442Z,26.06
2022-08-22T15:42:40.082Z,26.00
2022-08-22T15:43:46.731Z,26.00
2022-08-22T15:45:42.329Z,25.94
2022-08-22T15:46:58.368Z,25.88
2022-08-22T15:48:20.994Z,25.88
2022-08-22T15:50:05.370Z,25.81
2022-08-22T15:51:12.927Z,25.75
2022-08-22T15:52:20.176Z,25.75
2022-08-22T15:54:25.164Z,25.75
2022-08-22T15:55:38.768Z,25.75
2022-08-22T15:56:46.170Z,25.75
2022-08-22T15:58:26.354Z,25.75
2022-08-22T15:59:53.805Z,25.75
2022-08-22T16:00:13.702Z,25.69
2022-08-22T16:01:25.843Z,25.69
2022-08-22T16:02:39.882Z,25.69
2022-08-22T16:04:16.474Z,25.69
2022-08-22T16:05:41.696Z,25.63
2022-08-22T16:06:52.592Z,25.63
2022-08-22T16:08:04.235Z,25.63
2022-08-22T16:09:42.687Z,25.69
2022-08-22T16:10:46.659Z,25.69
2022-08-22T16:11:51.356Z,25.81
2022-08-22T16:13:26.229Z,25.88
2022-08-22T16:14:35.253Z,25.94
2022-08-22T16:15:38.204Z,26.00
2022-08-22T16:17:18.479Z,26.06
2022-08-22T16:18:28.030Z,26.06
2022-08-22T16:19:31.269Z,26.06
2022-08-22T16:21:06.506Z,26.06
2022-08-22T16:22:09.479Z,26.06
2022-08-22T16:23:12.693Z,26.06
2022-08-22T16:24:47.897Z,26.06
2022-08-22T16:25:53.574Z,26.06
2022-08-22T16:26:56.414Z,26.06
2022-08-22T16:28:56.712Z,26.06
2022-08-22T16:30:04.543Z,26.06
2022-08-22T16:31:07.553Z,26.13
2022-08-22T16:32:42.533Z,26.25
2022-08-22T16:33:53.365Z,26.31
2022-08-22T16:34:56.453Z,26.38
2022-08-22T16:36:31.376Z,26.50
2022-08-22T16:37:34.599Z,26.56
2022-08-22T16:38:39.152Z,26.63
2022-08-22T16:40:14.775Z,26.63
2022-08-22T16:41:20.785Z,26.63
2022-08-22T16:42:25.711Z,26.63
2022-08-22T16:44:04.083Z,26.56
2022-08-22T16:45:08.567Z,26.63
2022-08-22T16:46:11.410Z,26.63
2022-08-22T16:47:58.514Z,26.63
2022-08-22T16:49:01.850Z,26.63
2022-08-22T16:50:04.903Z,26.63
2022-08-22T16:51:40.052Z,26.69
2022-08-22T16:52:43.232Z,26.69
2022-08-22T16:53:46.377Z,26.69
2022-08-22T16:55:21.479Z,26.75
2022-08-22T16:56:24.478Z,26.75
2022-08-22T16:57:27.541Z,26.75
2022-08-22T17:00:12.640Z,26.81
2022-08-22T17:01:23.707Z,26.81
2022-08-22T17:02:27.138Z,26.81
2022-08-22T17:04:02.220Z,26.75
2022-08-22T17:05:05.201Z,26.69
2022-08-22T17:06:11.043Z,26.63
2022-08-22T17:07:46.093Z,26.50
2022-08-22T17:08:49.158Z,26.44
2022-08-22T17:09:52.096Z,26.38
2022-08-22T17:11:33.789Z,26.25
2022-08-22T17:12:36.836Z,26.19